<?xml version="1.0" encoding="UTF-8" standalone="no" ?>
<gpx xmlns="http://www.topografix.com/GPX/1/1" xmlns:xsi="http://www.w3.org/2001/XMLSchema-instance" xsi:schemaLocation="http://www.topografix.com/GPX/1/1 http://www.topografix.com/GPX/1/1/gpx.xsd" version="1.1" creator="VisuGPX - https://www.visugpx.com">
  <metadata>
    <name>skirando brequillon</name>
    <desc><![CDATA[depuis notre gite, montée vers brequillon. neige dure à la montée, on trouve un peu de poudre tassée croutée en N, c'est plus transformé en E. du coup on remet les peaux vers platelonge. arrêt à l'épaule (fort vent sur les crêtes et c'est le bon horaire). bonne descente jusqu'au fond du vallon. descente et retraversée au collet. descente dans avalanche sous la tête de la lauze, ensuite c'est du très mou/pourri jusqu'à larche. avec les amis.]]></desc>
  </metadata>
  <wpt lat="44.45124" lon="6.84464">
    <ele>1615.13</ele>
    <name><![CDATA[0000222]]></name>
    <type><![CDATA[Point de départ]]></type>
  </wpt>
  <wpt lat="44.45041" lon="6.84353">
    <ele>1676.96</ele>
    <name><![CDATA[0000223]]></name>
    <desc><![CDATA[<p><br /><h3>Nom: Segment: 1</h3><br />Heure de départ: 04/15/2018 06:29<br/>Heure d'arrivée: 04/15/2018 13:00<br/>Distance: 12,2km (06:30)<br/>Temps déplacement: 02:51<br/>Vitesse moyenne: 1,88 km/h<br/>Vitesse moyenne mouv.: 4,25 km/h<br/>Vitesse Max.: 27,29 km/h<br/>Altitude minimale: 1615 m<br/>Altitude maximale: 2703 m<br/>Vitesse de montée: 309,8 m/h<br/>Vitesse de descente: -652,9 m/h<br/>Gain d'altitude: 1388 m<br/>Perte d'altitude: -1326 m<br/>Temps de montée: 04:28<br/>Temps de descente: 02:01<br/></p>]]></desc>
    <type><![CDATA[Point d'arrivée]]></type>
  </wpt>
  <trk>
    <name><![CDATA[2018-04-15 06:29 baisse brequillon plate longe]]></name>
    <trkseg>
      <trkpt lat="44.45116" lon="6.84453">
        <ele>1684.06</ele>
        <time>2018-04-15T04:31:06.000Z</time>
      </trkpt>
      <trkpt lat="44.44712" lon="6.84583">
        <ele>1718.24</ele>
        <time>2018-04-15T04:51:12.000Z</time>
      </trkpt>
      <trkpt lat="44.4473" lon="6.84567">
        <ele>1765.42</ele>
        <time>2018-04-15T04:51:56.000Z</time>
      </trkpt>
      <trkpt lat="44.44736" lon="6.84541">
        <ele>1760.37</ele>
        <time>2018-04-15T04:52:40.000Z</time>
      </trkpt>
      <trkpt lat="44.44751" lon="6.84522">
        <ele>1758.02</ele>
        <time>2018-04-15T04:53:08.000Z</time>
      </trkpt>
      <trkpt lat="44.44759" lon="6.845">
        <ele>1759.56</ele>
        <time>2018-04-15T04:53:36.000Z</time>
      </trkpt>
      <trkpt lat="44.4476" lon="6.84473">
        <ele>1764.26</ele>
        <time>2018-04-15T04:54:12.000Z</time>
      </trkpt>
      <trkpt lat="44.44765" lon="6.84449">
        <ele>1767.28</ele>
        <time>2018-04-15T04:54:40.000Z</time>
      </trkpt>
      <trkpt lat="44.44748" lon="6.84442">
        <ele>1782.21</ele>
        <time>2018-04-15T04:55:45.000Z</time>
      </trkpt>
      <trkpt lat="44.4473" lon="6.84446">
        <ele>1787.43</ele>
        <time>2018-04-15T04:56:09.000Z</time>
      </trkpt>
      <trkpt lat="44.44709" lon="6.84457">
        <ele>1793.62</ele>
        <time>2018-04-15T04:56:33.000Z</time>
      </trkpt>
      <trkpt lat="44.44691" lon="6.84471">
        <ele>1801.58</ele>
        <time>2018-04-15T04:57:01.000Z</time>
      </trkpt>
      <trkpt lat="44.4467" lon="6.84471">
        <ele>1810.58</ele>
        <time>2018-04-15T04:57:41.000Z</time>
      </trkpt>
      <trkpt lat="44.4465" lon="6.84475">
        <ele>1815.45</ele>
        <time>2018-04-15T04:58:17.000Z</time>
      </trkpt>
      <trkpt lat="44.4463" lon="6.84474">
        <ele>1818.17</ele>
        <time>2018-04-15T04:58:37.000Z</time>
      </trkpt>
      <trkpt lat="44.44615" lon="6.84493">
        <ele>1822.6</ele>
        <time>2018-04-15T04:59:33.000Z</time>
      </trkpt>
      <trkpt lat="44.44601" lon="6.84511">
        <ele>1825.13</ele>
        <time>2018-04-15T05:00:09.000Z</time>
      </trkpt>
      <trkpt lat="44.44581" lon="6.84516">
        <ele>1827.53</ele>
        <time>2018-04-15T05:00:33.000Z</time>
      </trkpt>
      <trkpt lat="44.44567" lon="6.84535">
        <ele>1832.83</ele>
        <time>2018-04-15T05:01:21.000Z</time>
      </trkpt>
      <trkpt lat="44.44548" lon="6.84549">
        <ele>1837.87</ele>
        <time>2018-04-15T05:01:53.000Z</time>
      </trkpt>
      <trkpt lat="44.44521" lon="6.84573">
        <ele>1844.31</ele>
        <time>2018-04-15T05:02:37.000Z</time>
      </trkpt>
      <trkpt lat="44.44502" lon="6.84597">
        <ele>1846.16</ele>
        <time>2018-04-15T05:02:53.000Z</time>
      </trkpt>
      <trkpt lat="44.44509" lon="6.84573">
        <ele>1847.35</ele>
        <time>2018-04-15T05:04:05.000Z</time>
      </trkpt>
      <trkpt lat="44.44516" lon="6.84547">
        <ele>1850.76</ele>
        <time>2018-04-15T05:04:57.000Z</time>
      </trkpt>
      <trkpt lat="44.44504" lon="6.84526">
        <ele>1859.41</ele>
        <time>2018-04-15T05:05:53.000Z</time>
      </trkpt>
      <trkpt lat="44.44482" lon="6.84522">
        <ele>1864.57</ele>
        <time>2018-04-15T05:06:33.000Z</time>
      </trkpt>
      <trkpt lat="44.44465" lon="6.84535">
        <ele>1868.86</ele>
        <time>2018-04-15T05:07:09.000Z</time>
      </trkpt>
      <trkpt lat="44.44447" lon="6.8454">
        <ele>1875.51</ele>
        <time>2018-04-15T05:07:33.000Z</time>
      </trkpt>
      <trkpt lat="44.44429" lon="6.84547">
        <ele>1880.48</ele>
        <time>2018-04-15T05:07:57.000Z</time>
      </trkpt>
      <trkpt lat="44.44412" lon="6.84559">
        <ele>1884.14</ele>
        <time>2018-04-15T05:08:25.000Z</time>
      </trkpt>
      <trkpt lat="44.44396" lon="6.84574">
        <ele>1887.52</ele>
        <time>2018-04-15T05:09:01.000Z</time>
      </trkpt>
      <trkpt lat="44.44376" lon="6.84585">
        <ele>1892.11</ele>
        <time>2018-04-15T05:09:37.000Z</time>
      </trkpt>
      <trkpt lat="44.44358" lon="6.84593">
        <ele>1896.2</ele>
        <time>2018-04-15T05:10:05.000Z</time>
      </trkpt>
      <trkpt lat="44.4434" lon="6.84599">
        <ele>1902.79</ele>
        <time>2018-04-15T05:10:41.000Z</time>
      </trkpt>
      <trkpt lat="44.4432" lon="6.84591">
        <ele>1910.89</ele>
        <time>2018-04-15T05:11:29.000Z</time>
      </trkpt>
      <trkpt lat="44.44301" lon="6.84589">
        <ele>1913.5</ele>
        <time>2018-04-15T05:12:21.000Z</time>
      </trkpt>
      <trkpt lat="44.44281" lon="6.8459">
        <ele>1916.53</ele>
        <time>2018-04-15T05:12:52.000Z</time>
      </trkpt>
      <trkpt lat="44.44287" lon="6.84565">
        <ele>1920.02</ele>
        <time>2018-04-15T05:14:00.000Z</time>
      </trkpt>
      <trkpt lat="44.44296" lon="6.84543">
        <ele>1926</ele>
        <time>2018-04-15T05:15:08.000Z</time>
      </trkpt>
      <trkpt lat="44.44276" lon="6.84535">
        <ele>1929.53</ele>
        <time>2018-04-15T05:15:36.000Z</time>
      </trkpt>
      <trkpt lat="44.44259" lon="6.84524">
        <ele>1938.99</ele>
        <time>2018-04-15T05:16:20.000Z</time>
      </trkpt>
      <trkpt lat="44.44242" lon="6.84509">
        <ele>1944.12</ele>
        <time>2018-04-15T05:17:08.000Z</time>
      </trkpt>
      <trkpt lat="44.44217" lon="6.845">
        <ele>1951.56</ele>
        <time>2018-04-15T05:18:32.000Z</time>
      </trkpt>
      <trkpt lat="44.4422" lon="6.84526">
        <ele>1955.37</ele>
        <time>2018-04-15T05:19:52.000Z</time>
      </trkpt>
      <trkpt lat="44.44199" lon="6.84522">
        <ele>1956.58</ele>
        <time>2018-04-15T05:22:44.000Z</time>
      </trkpt>
      <trkpt lat="44.44183" lon="6.84509">
        <ele>1954.66</ele>
        <time>2018-04-15T05:23:16.000Z</time>
      </trkpt>
      <trkpt lat="44.4417" lon="6.84489">
        <ele>1953.01</ele>
        <time>2018-04-15T05:23:52.000Z</time>
      </trkpt>
      <trkpt lat="44.44159" lon="6.84469">
        <ele>1950.81</ele>
        <time>2018-04-15T05:24:16.000Z</time>
      </trkpt>
      <trkpt lat="44.44144" lon="6.84451">
        <ele>1949.47</ele>
        <time>2018-04-15T05:24:36.000Z</time>
      </trkpt>
      <trkpt lat="44.44144" lon="6.84423">
        <ele>1951.1</ele>
        <time>2018-04-15T05:25:08.000Z</time>
      </trkpt>
      <trkpt lat="44.44138" lon="6.84398">
        <ele>1954.34</ele>
        <time>2018-04-15T05:25:40.000Z</time>
      </trkpt>
      <trkpt lat="44.44127" lon="6.84376">
        <ele>1957.16</ele>
        <time>2018-04-15T05:26:04.000Z</time>
      </trkpt>
      <trkpt lat="44.44117" lon="6.84353">
        <ele>1962.7</ele>
        <time>2018-04-15T05:26:40.000Z</time>
      </trkpt>
      <trkpt lat="44.44107" lon="6.84332">
        <ele>1970.47</ele>
        <time>2018-04-15T05:27:16.000Z</time>
      </trkpt>
      <trkpt lat="44.44096" lon="6.84308">
        <ele>1977.95</ele>
        <time>2018-04-15T05:27:52.000Z</time>
      </trkpt>
      <trkpt lat="44.44112" lon="6.84295">
        <ele>1984.61</ele>
        <time>2018-04-15T05:28:28.000Z</time>
      </trkpt>
      <trkpt lat="44.44116" lon="6.84269">
        <ele>1998.67</ele>
        <time>2018-04-15T05:29:40.000Z</time>
      </trkpt>
      <trkpt lat="44.4411" lon="6.84243">
        <ele>2010.3</ele>
        <time>2018-04-15T05:30:32.000Z</time>
      </trkpt>
      <trkpt lat="44.44132" lon="6.84235">
        <ele>2016.41</ele>
        <time>2018-04-15T05:31:09.000Z</time>
      </trkpt>
      <trkpt lat="44.44116" lon="6.8422">
        <ele>2028.5</ele>
        <time>2018-04-15T05:32:21.000Z</time>
      </trkpt>
      <trkpt lat="44.44098" lon="6.84206">
        <ele>2035.89</ele>
        <time>2018-04-15T05:32:53.000Z</time>
      </trkpt>
      <trkpt lat="44.44084" lon="6.84188">
        <ele>2039.55</ele>
        <time>2018-04-15T05:33:25.000Z</time>
      </trkpt>
      <trkpt lat="44.44066" lon="6.84178">
        <ele>2043.91</ele>
        <time>2018-04-15T05:33:49.000Z</time>
      </trkpt>
      <trkpt lat="44.44056" lon="6.84156">
        <ele>2047.41</ele>
        <time>2018-04-15T05:38:37.000Z</time>
      </trkpt>
      <trkpt lat="44.44046" lon="6.84133">
        <ele>2050.05</ele>
        <time>2018-04-15T05:39:05.000Z</time>
      </trkpt>
      <trkpt lat="44.44037" lon="6.8411">
        <ele>2048.35</ele>
        <time>2018-04-15T05:39:25.000Z</time>
      </trkpt>
      <trkpt lat="44.44028" lon="6.84087">
        <ele>2045.19</ele>
        <time>2018-04-15T05:39:45.000Z</time>
      </trkpt>
      <trkpt lat="44.44016" lon="6.84061">
        <ele>2043.73</ele>
        <time>2018-04-15T05:40:17.000Z</time>
      </trkpt>
      <trkpt lat="44.44003" lon="6.84042">
        <ele>2044.62</ele>
        <time>2018-04-15T05:40:37.000Z</time>
      </trkpt>
      <trkpt lat="44.43998" lon="6.84017">
        <ele>2048.32</ele>
        <time>2018-04-15T05:40:57.000Z</time>
      </trkpt>
      <trkpt lat="44.4399" lon="6.83994">
        <ele>2057.86</ele>
        <time>2018-04-15T05:41:29.000Z</time>
      </trkpt>
      <trkpt lat="44.43984" lon="6.83967">
        <ele>2062.95</ele>
        <time>2018-04-15T05:42:01.000Z</time>
      </trkpt>
      <trkpt lat="44.43975" lon="6.83942">
        <ele>2064.56</ele>
        <time>2018-04-15T05:42:25.000Z</time>
      </trkpt>
      <trkpt lat="44.43971" lon="6.83917">
        <ele>2062.13</ele>
        <time>2018-04-15T05:42:57.000Z</time>
      </trkpt>
      <trkpt lat="44.43976" lon="6.83892">
        <ele>2061.47</ele>
        <time>2018-04-15T05:43:21.000Z</time>
      </trkpt>
      <trkpt lat="44.4398" lon="6.83864">
        <ele>2064.09</ele>
        <time>2018-04-15T05:43:49.000Z</time>
      </trkpt>
      <trkpt lat="44.43984" lon="6.83835">
        <ele>2069.75</ele>
        <time>2018-04-15T05:44:13.000Z</time>
      </trkpt>
      <trkpt lat="44.43985" lon="6.83802">
        <ele>2079.41</ele>
        <time>2018-04-15T05:44:49.000Z</time>
      </trkpt>
      <trkpt lat="44.4399" lon="6.83775">
        <ele>2084.56</ele>
        <time>2018-04-15T05:45:13.000Z</time>
      </trkpt>
      <trkpt lat="44.43992" lon="6.8375">
        <ele>2090.24</ele>
        <time>2018-04-15T05:45:41.000Z</time>
      </trkpt>
      <trkpt lat="44.43999" lon="6.83725">
        <ele>2092.92</ele>
        <time>2018-04-15T05:46:01.000Z</time>
      </trkpt>
      <trkpt lat="44.44002" lon="6.83696">
        <ele>2096.89</ele>
        <time>2018-04-15T05:46:25.000Z</time>
      </trkpt>
      <trkpt lat="44.44004" lon="6.83667">
        <ele>2103.33</ele>
        <time>2018-04-15T05:46:49.000Z</time>
      </trkpt>
      <trkpt lat="44.4401" lon="6.83639">
        <ele>2110.22</ele>
        <time>2018-04-15T05:47:17.000Z</time>
      </trkpt>
      <trkpt lat="44.4401" lon="6.83611">
        <ele>2114.08</ele>
        <time>2018-04-15T05:47:49.000Z</time>
      </trkpt>
      <trkpt lat="44.44015" lon="6.83587">
        <ele>2116.39</ele>
        <time>2018-04-15T05:48:13.000Z</time>
      </trkpt>
      <trkpt lat="44.44025" lon="6.83562">
        <ele>2118.7</ele>
        <time>2018-04-15T05:48:37.000Z</time>
      </trkpt>
      <trkpt lat="44.44031" lon="6.83537">
        <ele>2123.23</ele>
        <time>2018-04-15T05:49:20.000Z</time>
      </trkpt>
      <trkpt lat="44.44054" lon="6.83537">
        <ele>2129.47</ele>
        <time>2018-04-15T05:50:12.000Z</time>
      </trkpt>
      <trkpt lat="44.44068" lon="6.83516">
        <ele>2134.3</ele>
        <time>2018-04-15T05:51:04.000Z</time>
      </trkpt>
      <trkpt lat="44.44061" lon="6.83493">
        <ele>2140.33</ele>
        <time>2018-04-15T05:51:56.000Z</time>
      </trkpt>
      <trkpt lat="44.44044" lon="6.83509">
        <ele>2145.09</ele>
        <time>2018-04-15T05:53:28.000Z</time>
      </trkpt>
      <trkpt lat="44.44042" lon="6.83484">
        <ele>2143.69</ele>
        <time>2018-04-15T05:56:48.000Z</time>
      </trkpt>
      <trkpt lat="44.44037" lon="6.83454">
        <ele>2146.78</ele>
        <time>2018-04-15T05:57:12.000Z</time>
      </trkpt>
      <trkpt lat="44.44056" lon="6.83453">
        <ele>2153.22</ele>
        <time>2018-04-15T05:57:56.000Z</time>
      </trkpt>
      <trkpt lat="44.44063" lon="6.83426">
        <ele>2157.6</ele>
        <time>2018-04-15T05:58:24.000Z</time>
      </trkpt>
      <trkpt lat="44.44064" lon="6.83398">
        <ele>2162.58</ele>
        <time>2018-04-15T05:58:52.000Z</time>
      </trkpt>
      <trkpt lat="44.44056" lon="6.83375">
        <ele>2169.99</ele>
        <time>2018-04-15T05:59:24.000Z</time>
      </trkpt>
      <trkpt lat="44.44053" lon="6.83348">
        <ele>2175.81</ele>
        <time>2018-04-15T05:59:52.000Z</time>
      </trkpt>
      <trkpt lat="44.44059" lon="6.83324">
        <ele>2184.16</ele>
        <time>2018-04-15T06:00:24.000Z</time>
      </trkpt>
      <trkpt lat="44.4408" lon="6.83316">
        <ele>2191.2</ele>
        <time>2018-04-15T06:00:56.000Z</time>
      </trkpt>
      <trkpt lat="44.44098" lon="6.83327">
        <ele>2194.45</ele>
        <time>2018-04-15T06:01:20.000Z</time>
      </trkpt>
      <trkpt lat="44.44113" lon="6.83312">
        <ele>2200.3</ele>
        <time>2018-04-15T06:03:08.000Z</time>
      </trkpt>
      <trkpt lat="44.44114" lon="6.83286">
        <ele>2203.42</ele>
        <time>2018-04-15T06:03:36.000Z</time>
      </trkpt>
      <trkpt lat="44.44116" lon="6.8326">
        <ele>2209.16</ele>
        <time>2018-04-15T06:04:32.000Z</time>
      </trkpt>
      <trkpt lat="44.44132" lon="6.83246">
        <ele>2214.69</ele>
        <time>2018-04-15T06:05:40.000Z</time>
      </trkpt>
      <trkpt lat="44.44127" lon="6.83219">
        <ele>2216.47</ele>
        <time>2018-04-15T06:06:04.000Z</time>
      </trkpt>
      <trkpt lat="44.44117" lon="6.83197">
        <ele>2218.81</ele>
        <time>2018-04-15T06:06:24.000Z</time>
      </trkpt>
      <trkpt lat="44.44107" lon="6.83175">
        <ele>2222.37</ele>
        <time>2018-04-15T06:06:52.000Z</time>
      </trkpt>
      <trkpt lat="44.44099" lon="6.83152">
        <ele>2225.99</ele>
        <time>2018-04-15T06:07:17.000Z</time>
      </trkpt>
      <trkpt lat="44.44087" lon="6.83132">
        <ele>2233.51</ele>
        <time>2018-04-15T06:07:49.000Z</time>
      </trkpt>
      <trkpt lat="44.44077" lon="6.83107">
        <ele>2239.17</ele>
        <time>2018-04-15T06:08:13.000Z</time>
      </trkpt>
      <trkpt lat="44.44062" lon="6.83092">
        <ele>2244.05</ele>
        <time>2018-04-15T06:08:37.000Z</time>
      </trkpt>
      <trkpt lat="44.44042" lon="6.83081">
        <ele>2246.84</ele>
        <time>2018-04-15T06:09:05.000Z</time>
      </trkpt>
      <trkpt lat="44.44023" lon="6.83075">
        <ele>2250.79</ele>
        <time>2018-04-15T06:09:29.000Z</time>
      </trkpt>
      <trkpt lat="44.4401" lon="6.83056">
        <ele>2265.12</ele>
        <time>2018-04-15T06:20:17.000Z</time>
      </trkpt>
      <trkpt lat="44.44003" lon="6.83032">
        <ele>2265.38</ele>
        <time>2018-04-15T06:20:41.000Z</time>
      </trkpt>
      <trkpt lat="44.43994" lon="6.83006">
        <ele>2264.82</ele>
        <time>2018-04-15T06:21:09.000Z</time>
      </trkpt>
      <trkpt lat="44.43985" lon="6.82982">
        <ele>2262.96</ele>
        <time>2018-04-15T06:21:33.000Z</time>
      </trkpt>
      <trkpt lat="44.43979" lon="6.82958">
        <ele>2261.99</ele>
        <time>2018-04-15T06:21:57.000Z</time>
      </trkpt>
      <trkpt lat="44.43966" lon="6.82941">
        <ele>2261.89</ele>
        <time>2018-04-15T06:22:21.000Z</time>
      </trkpt>
      <trkpt lat="44.4395" lon="6.82922">
        <ele>2263.9</ele>
        <time>2018-04-15T06:22:49.000Z</time>
      </trkpt>
      <trkpt lat="44.43938" lon="6.82898">
        <ele>2266.03</ele>
        <time>2018-04-15T06:23:13.000Z</time>
      </trkpt>
      <trkpt lat="44.4393" lon="6.82875">
        <ele>2268.09</ele>
        <time>2018-04-15T06:23:37.000Z</time>
      </trkpt>
      <trkpt lat="44.43923" lon="6.82851">
        <ele>2269.46</ele>
        <time>2018-04-15T06:24:01.000Z</time>
      </trkpt>
      <trkpt lat="44.43908" lon="6.82834">
        <ele>2272.07</ele>
        <time>2018-04-15T06:24:33.000Z</time>
      </trkpt>
      <trkpt lat="44.43897" lon="6.82814">
        <ele>2274.06</ele>
        <time>2018-04-15T06:25:00.000Z</time>
      </trkpt>
      <trkpt lat="44.43877" lon="6.82801">
        <ele>2274.5</ele>
        <time>2018-04-15T06:25:20.000Z</time>
      </trkpt>
      <trkpt lat="44.43863" lon="6.82783">
        <ele>2275.12</ele>
        <time>2018-04-15T06:25:40.000Z</time>
      </trkpt>
      <trkpt lat="44.43855" lon="6.82756">
        <ele>2275.38</ele>
        <time>2018-04-15T06:26:04.000Z</time>
      </trkpt>
      <trkpt lat="44.43843" lon="6.82734">
        <ele>2275.38</ele>
        <time>2018-04-15T06:26:40.000Z</time>
      </trkpt>
      <trkpt lat="44.43827" lon="6.82716">
        <ele>2275.97</ele>
        <time>2018-04-15T06:27:00.000Z</time>
      </trkpt>
      <trkpt lat="44.43818" lon="6.82694">
        <ele>2278.82</ele>
        <time>2018-04-15T06:27:28.000Z</time>
      </trkpt>
      <trkpt lat="44.43808" lon="6.82672">
        <ele>2282.83</ele>
        <time>2018-04-15T06:28:00.000Z</time>
      </trkpt>
      <trkpt lat="44.43801" lon="6.82647">
        <ele>2285.54</ele>
        <time>2018-04-15T06:28:28.000Z</time>
      </trkpt>
      <trkpt lat="44.43795" lon="6.82622">
        <ele>2288.25</ele>
        <time>2018-04-15T06:28:56.000Z</time>
      </trkpt>
      <trkpt lat="44.43783" lon="6.82603">
        <ele>2289.39</ele>
        <time>2018-04-15T06:29:20.000Z</time>
      </trkpt>
      <trkpt lat="44.43769" lon="6.82583">
        <ele>2289.48</ele>
        <time>2018-04-15T06:29:44.000Z</time>
      </trkpt>
      <trkpt lat="44.43756" lon="6.82563">
        <ele>2288.78</ele>
        <time>2018-04-15T06:30:08.000Z</time>
      </trkpt>
      <trkpt lat="44.43742" lon="6.82544">
        <ele>2288.67</ele>
        <time>2018-04-15T06:30:32.000Z</time>
      </trkpt>
      <trkpt lat="44.43725" lon="6.82528">
        <ele>2288.97</ele>
        <time>2018-04-15T06:31:04.000Z</time>
      </trkpt>
      <trkpt lat="44.4371" lon="6.82512">
        <ele>2289.67</ele>
        <time>2018-04-15T06:31:28.000Z</time>
      </trkpt>
      <trkpt lat="44.43694" lon="6.8249">
        <ele>2291.83</ele>
        <time>2018-04-15T06:32:00.000Z</time>
      </trkpt>
      <trkpt lat="44.4368" lon="6.82471">
        <ele>2292.8</ele>
        <time>2018-04-15T06:32:24.000Z</time>
      </trkpt>
      <trkpt lat="44.43665" lon="6.82455">
        <ele>2294.37</ele>
        <time>2018-04-15T06:32:52.000Z</time>
      </trkpt>
      <trkpt lat="44.43648" lon="6.82446">
        <ele>2297.73</ele>
        <time>2018-04-15T06:33:32.000Z</time>
      </trkpt>
      <trkpt lat="44.43631" lon="6.82435">
        <ele>2307.27</ele>
        <time>2018-04-15T06:34:04.000Z</time>
      </trkpt>
      <trkpt lat="44.43617" lon="6.82416">
        <ele>2312.68</ele>
        <time>2018-04-15T06:34:36.000Z</time>
      </trkpt>
      <trkpt lat="44.436" lon="6.82403">
        <ele>2315.98</ele>
        <time>2018-04-15T06:35:04.000Z</time>
      </trkpt>
      <trkpt lat="44.43581" lon="6.82399">
        <ele>2321.26</ele>
        <time>2018-04-15T06:35:32.000Z</time>
      </trkpt>
      <trkpt lat="44.43562" lon="6.82395">
        <ele>2324.44</ele>
        <time>2018-04-15T06:35:56.000Z</time>
      </trkpt>
      <trkpt lat="44.43541" lon="6.82395">
        <ele>2328.77</ele>
        <time>2018-04-15T06:36:40.000Z</time>
      </trkpt>
      <trkpt lat="44.43522" lon="6.82383">
        <ele>2331.97</ele>
        <time>2018-04-15T06:37:12.000Z</time>
      </trkpt>
      <trkpt lat="44.43504" lon="6.82377">
        <ele>2333.65</ele>
        <time>2018-04-15T06:37:48.000Z</time>
      </trkpt>
      <trkpt lat="44.43485" lon="6.82369">
        <ele>2334.89</ele>
        <time>2018-04-15T06:38:16.000Z</time>
      </trkpt>
      <trkpt lat="44.43467" lon="6.8236">
        <ele>2336.08</ele>
        <time>2018-04-15T06:38:48.000Z</time>
      </trkpt>
      <trkpt lat="44.43449" lon="6.82349">
        <ele>2337.88</ele>
        <time>2018-04-15T06:39:20.000Z</time>
      </trkpt>
      <trkpt lat="44.4343" lon="6.82338">
        <ele>2339.82</ele>
        <time>2018-04-15T06:39:56.000Z</time>
      </trkpt>
      <trkpt lat="44.43412" lon="6.82327">
        <ele>2342.46</ele>
        <time>2018-04-15T06:40:28.000Z</time>
      </trkpt>
      <trkpt lat="44.43396" lon="6.82312">
        <ele>2345.03</ele>
        <time>2018-04-15T06:40:56.000Z</time>
      </trkpt>
      <trkpt lat="44.4338" lon="6.823">
        <ele>2347.57</ele>
        <time>2018-04-15T06:41:21.000Z</time>
      </trkpt>
      <trkpt lat="44.43361" lon="6.8229">
        <ele>2350.84</ele>
        <time>2018-04-15T06:41:53.000Z</time>
      </trkpt>
      <trkpt lat="44.43341" lon="6.82278">
        <ele>2360</ele>
        <time>2018-04-15T06:42:41.000Z</time>
      </trkpt>
      <trkpt lat="44.43325" lon="6.8226">
        <ele>2367.45</ele>
        <time>2018-04-15T06:43:17.000Z</time>
      </trkpt>
      <trkpt lat="44.43307" lon="6.82242">
        <ele>2373.6</ele>
        <time>2018-04-15T06:43:49.000Z</time>
      </trkpt>
      <trkpt lat="44.43292" lon="6.82228">
        <ele>2378.13</ele>
        <time>2018-04-15T06:44:17.000Z</time>
      </trkpt>
      <trkpt lat="44.43275" lon="6.82213">
        <ele>2383.6</ele>
        <time>2018-04-15T06:44:53.000Z</time>
      </trkpt>
      <trkpt lat="44.43258" lon="6.82199">
        <ele>2387.12</ele>
        <time>2018-04-15T06:45:25.000Z</time>
      </trkpt>
      <trkpt lat="44.43238" lon="6.82187">
        <ele>2391.77</ele>
        <time>2018-04-15T06:46:05.000Z</time>
      </trkpt>
      <trkpt lat="44.43221" lon="6.82173">
        <ele>2393.72</ele>
        <time>2018-04-15T06:46:37.000Z</time>
      </trkpt>
      <trkpt lat="44.43202" lon="6.82163">
        <ele>2396.73</ele>
        <time>2018-04-15T06:47:09.000Z</time>
      </trkpt>
      <trkpt lat="44.43185" lon="6.82152">
        <ele>2400.92</ele>
        <time>2018-04-15T06:47:37.000Z</time>
      </trkpt>
      <trkpt lat="44.43165" lon="6.82154">
        <ele>2406.04</ele>
        <time>2018-04-15T06:48:29.000Z</time>
      </trkpt>
      <trkpt lat="44.43145" lon="6.82164">
        <ele>2410.27</ele>
        <time>2018-04-15T06:49:05.000Z</time>
      </trkpt>
      <trkpt lat="44.43129" lon="6.82148">
        <ele>2424.86</ele>
        <time>2018-04-15T06:53:45.000Z</time>
      </trkpt>
      <trkpt lat="44.43115" lon="6.82131">
        <ele>2428.11</ele>
        <time>2018-04-15T06:54:21.000Z</time>
      </trkpt>
      <trkpt lat="44.43109" lon="6.82107">
        <ele>2430.4</ele>
        <time>2018-04-15T06:54:53.000Z</time>
      </trkpt>
      <trkpt lat="44.43098" lon="6.82081">
        <ele>2432.58</ele>
        <time>2018-04-15T06:55:29.000Z</time>
      </trkpt>
      <trkpt lat="44.43081" lon="6.82072">
        <ele>2435.59</ele>
        <time>2018-04-15T06:56:01.000Z</time>
      </trkpt>
      <trkpt lat="44.43061" lon="6.8206">
        <ele>2437.45</ele>
        <time>2018-04-15T06:56:33.000Z</time>
      </trkpt>
      <trkpt lat="44.43045" lon="6.82047">
        <ele>2441.28</ele>
        <time>2018-04-15T06:57:05.000Z</time>
      </trkpt>
      <trkpt lat="44.43028" lon="6.8204">
        <ele>2444.91</ele>
        <time>2018-04-15T06:57:29.000Z</time>
      </trkpt>
      <trkpt lat="44.4301" lon="6.82043">
        <ele>2452.13</ele>
        <time>2018-04-15T06:58:09.000Z</time>
      </trkpt>
      <trkpt lat="44.42992" lon="6.82035">
        <ele>2456.84</ele>
        <time>2018-04-15T06:58:32.000Z</time>
      </trkpt>
      <trkpt lat="44.42974" lon="6.82028">
        <ele>2460.77</ele>
        <time>2018-04-15T06:59:08.000Z</time>
      </trkpt>
      <trkpt lat="44.42955" lon="6.82022">
        <ele>2462.55</ele>
        <time>2018-04-15T06:59:48.000Z</time>
      </trkpt>
      <trkpt lat="44.42957" lon="6.81994">
        <ele>2465.39</ele>
        <time>2018-04-15T07:00:16.000Z</time>
      </trkpt>
      <trkpt lat="44.42969" lon="6.81972">
        <ele>2469.09</ele>
        <time>2018-04-15T07:00:48.000Z</time>
      </trkpt>
      <trkpt lat="44.42955" lon="6.81953">
        <ele>2477.61</ele>
        <time>2018-04-15T07:01:52.000Z</time>
      </trkpt>
      <trkpt lat="44.42937" lon="6.81944">
        <ele>2479.99</ele>
        <time>2018-04-15T07:02:12.000Z</time>
      </trkpt>
      <trkpt lat="44.4292" lon="6.81936">
        <ele>2487.55</ele>
        <time>2018-04-15T07:02:52.000Z</time>
      </trkpt>
      <trkpt lat="44.42916" lon="6.81908">
        <ele>2494.32</ele>
        <time>2018-04-15T07:04:00.000Z</time>
      </trkpt>
      <trkpt lat="44.42906" lon="6.81885">
        <ele>2504.04</ele>
        <time>2018-04-15T07:04:48.000Z</time>
      </trkpt>
      <trkpt lat="44.42886" lon="6.81879">
        <ele>2509.46</ele>
        <time>2018-04-15T07:05:24.000Z</time>
      </trkpt>
      <trkpt lat="44.42866" lon="6.81871">
        <ele>2516.62</ele>
        <time>2018-04-15T07:05:56.000Z</time>
      </trkpt>
      <trkpt lat="44.4287" lon="6.81845">
        <ele>2522.55</ele>
        <time>2018-04-15T07:07:16.000Z</time>
      </trkpt>
      <trkpt lat="44.42886" lon="6.81835">
        <ele>2525.71</ele>
        <time>2018-04-15T07:07:44.000Z</time>
      </trkpt>
      <trkpt lat="44.42873" lon="6.81813">
        <ele>2533.8</ele>
        <time>2018-04-15T07:08:36.000Z</time>
      </trkpt>
      <trkpt lat="44.42857" lon="6.81805">
        <ele>2537.9</ele>
        <time>2018-04-15T07:09:00.000Z</time>
      </trkpt>
      <trkpt lat="44.42839" lon="6.81791">
        <ele>2544.37</ele>
        <time>2018-04-15T07:09:36.000Z</time>
      </trkpt>
      <trkpt lat="44.42857" lon="6.81774">
        <ele>2552.94</ele>
        <time>2018-04-15T07:10:24.000Z</time>
      </trkpt>
      <trkpt lat="44.42876" lon="6.81766">
        <ele>2557.65</ele>
        <time>2018-04-15T07:11:00.000Z</time>
      </trkpt>
      <trkpt lat="44.4286" lon="6.81752">
        <ele>2567.36</ele>
        <time>2018-04-15T07:11:56.000Z</time>
      </trkpt>
      <trkpt lat="44.42841" lon="6.81743">
        <ele>2570.92</ele>
        <time>2018-04-15T07:12:24.000Z</time>
      </trkpt>
      <trkpt lat="44.4282" lon="6.81735">
        <ele>2576.13</ele>
        <time>2018-04-15T07:13:04.000Z</time>
      </trkpt>
      <trkpt lat="44.42799" lon="6.81736">
        <ele>2581.04</ele>
        <time>2018-04-15T07:13:40.000Z</time>
      </trkpt>
      <trkpt lat="44.42781" lon="6.8174">
        <ele>2584.71</ele>
        <time>2018-04-15T07:14:08.000Z</time>
      </trkpt>
      <trkpt lat="44.4276" lon="6.81748">
        <ele>2588.06</ele>
        <time>2018-04-15T07:14:44.000Z</time>
      </trkpt>
      <trkpt lat="44.42743" lon="6.81751">
        <ele>2590.3</ele>
        <time>2018-04-15T07:15:24.000Z</time>
      </trkpt>
      <trkpt lat="44.42724" lon="6.81756">
        <ele>2595.47</ele>
        <time>2018-04-15T07:16:01.000Z</time>
      </trkpt>
      <trkpt lat="44.42706" lon="6.81759">
        <ele>2601.49</ele>
        <time>2018-04-15T07:16:33.000Z</time>
      </trkpt>
      <trkpt lat="44.42686" lon="6.81758">
        <ele>2605.92</ele>
        <time>2018-04-15T07:17:05.000Z</time>
      </trkpt>
      <trkpt lat="44.42666" lon="6.81766">
        <ele>2610.2</ele>
        <time>2018-04-15T07:17:37.000Z</time>
      </trkpt>
      <trkpt lat="44.42646" lon="6.81773">
        <ele>2615.53</ele>
        <time>2018-04-15T07:18:17.000Z</time>
      </trkpt>
      <trkpt lat="44.4263" lon="6.81785">
        <ele>2619.23</ele>
        <time>2018-04-15T07:18:49.000Z</time>
      </trkpt>
      <trkpt lat="44.42612" lon="6.81792">
        <ele>2622.4</ele>
        <time>2018-04-15T07:19:21.000Z</time>
      </trkpt>
      <trkpt lat="44.42596" lon="6.81806">
        <ele>2625.2</ele>
        <time>2018-04-15T07:19:57.000Z</time>
      </trkpt>
      <trkpt lat="44.42582" lon="6.81821">
        <ele>2627.59</ele>
        <time>2018-04-15T07:20:29.000Z</time>
      </trkpt>
      <trkpt lat="44.42563" lon="6.81835">
        <ele>2630.93</ele>
        <time>2018-04-15T07:21:09.000Z</time>
      </trkpt>
      <trkpt lat="44.42545" lon="6.81838">
        <ele>2646.62</ele>
        <time>2018-04-15T07:25:29.000Z</time>
      </trkpt>
      <trkpt lat="44.42536" lon="6.81815">
        <ele>2651.8</ele>
        <time>2018-04-15T07:26:41.000Z</time>
      </trkpt>
      <trkpt lat="44.42525" lon="6.81837">
        <ele>2653.27</ele>
        <time>2018-04-15T07:27:33.000Z</time>
      </trkpt>
      <trkpt lat="44.42518" lon="6.81862">
        <ele>2651.7</ele>
        <time>2018-04-15T07:28:13.000Z</time>
      </trkpt>
      <trkpt lat="44.42507" lon="6.81883">
        <ele>2650.15</ele>
        <time>2018-04-15T07:28:37.000Z</time>
      </trkpt>
      <trkpt lat="44.42525" lon="6.81867">
        <ele>2655.11</ele>
        <time>2018-04-15T07:30:57.000Z</time>
      </trkpt>
      <trkpt lat="44.42534" lon="6.81845">
        <ele>2657.16</ele>
        <time>2018-04-15T07:31:17.000Z</time>
      </trkpt>
      <trkpt lat="44.42542" lon="6.81822">
        <ele>2659.67</ele>
        <time>2018-04-15T07:31:41.000Z</time>
      </trkpt>
      <trkpt lat="44.42551" lon="6.81797">
        <ele>2662.48</ele>
        <time>2018-04-15T07:32:09.000Z</time>
      </trkpt>
      <trkpt lat="44.42559" lon="6.81773">
        <ele>2663.77</ele>
        <time>2018-04-15T07:32:33.000Z</time>
      </trkpt>
      <trkpt lat="44.4257" lon="6.8175">
        <ele>2664.32</ele>
        <time>2018-04-15T07:32:57.000Z</time>
      </trkpt>
      <trkpt lat="44.4258" lon="6.81727">
        <ele>2665.2</ele>
        <time>2018-04-15T07:33:24.000Z</time>
      </trkpt>
      <trkpt lat="44.42592" lon="6.81707">
        <ele>2666.93</ele>
        <time>2018-04-15T07:33:52.000Z</time>
      </trkpt>
      <trkpt lat="44.426" lon="6.81685">
        <ele>2667.91</ele>
        <time>2018-04-15T07:34:20.000Z</time>
      </trkpt>
      <trkpt lat="44.42614" lon="6.81665">
        <ele>2668.61</ele>
        <time>2018-04-15T07:34:44.000Z</time>
      </trkpt>
      <trkpt lat="44.42632" lon="6.81651">
        <ele>2670.41</ele>
        <time>2018-04-15T07:35:36.000Z</time>
      </trkpt>
      <trkpt lat="44.42647" lon="6.81635">
        <ele>2670.96</ele>
        <time>2018-04-15T07:36:08.000Z</time>
      </trkpt>
      <trkpt lat="44.42662" lon="6.81617">
        <ele>2671.59</ele>
        <time>2018-04-15T07:36:40.000Z</time>
      </trkpt>
      <trkpt lat="44.42678" lon="6.81602">
        <ele>2673.36</ele>
        <time>2018-04-15T07:37:20.000Z</time>
      </trkpt>
      <trkpt lat="44.42695" lon="6.81585">
        <ele>2677.63</ele>
        <time>2018-04-15T07:37:52.000Z</time>
      </trkpt>
      <trkpt lat="44.42713" lon="6.81579">
        <ele>2684.06</ele>
        <time>2018-04-15T07:38:56.000Z</time>
      </trkpt>
      <trkpt lat="44.42728" lon="6.81561">
        <ele>2688.14</ele>
        <time>2018-04-15T07:39:24.000Z</time>
      </trkpt>
      <trkpt lat="44.42748" lon="6.81554">
        <ele>2690.57</ele>
        <time>2018-04-15T07:40:20.000Z</time>
      </trkpt>
      <trkpt lat="44.42765" lon="6.81547">
        <ele>2691.96</ele>
        <time>2018-04-15T07:40:48.000Z</time>
      </trkpt>
      <trkpt lat="44.42745" lon="6.81545">
        <ele>2698.18</ele>
        <time>2018-04-15T07:42:44.000Z</time>
      </trkpt>
      <trkpt lat="44.42725" lon="6.81554">
        <ele>2701.35</ele>
        <time>2018-04-15T07:43:16.000Z</time>
      </trkpt>
      <trkpt lat="44.42707" lon="6.81563">
        <ele>2702.86</ele>
        <time>2018-04-15T07:44:08.000Z</time>
      </trkpt>
      <trkpt lat="44.4269" lon="6.81591">
        <ele>2703.73</ele>
        <time>2018-04-15T07:51:49.000Z</time>
      </trkpt>
      <trkpt lat="44.42668" lon="6.81617">
        <ele>2702.35</ele>
        <time>2018-04-15T07:52:25.000Z</time>
      </trkpt>
      <trkpt lat="44.42646" lon="6.8164">
        <ele>2698.41</ele>
        <time>2018-04-15T07:52:33.000Z</time>
      </trkpt>
      <trkpt lat="44.42634" lon="6.81659">
        <ele>2683.98</ele>
        <time>2018-04-15T08:02:29.000Z</time>
      </trkpt>
      <trkpt lat="44.42624" lon="6.81685">
        <ele>2681.31</ele>
        <time>2018-04-15T08:03:29.000Z</time>
      </trkpt>
      <trkpt lat="44.42639" lon="6.81708">
        <ele>2678.58</ele>
        <time>2018-04-15T08:03:45.000Z</time>
      </trkpt>
      <trkpt lat="44.42643" lon="6.81738">
        <ele>2667.61</ele>
        <time>2018-04-15T08:04:49.000Z</time>
      </trkpt>
      <trkpt lat="44.4263" lon="6.81773">
        <ele>2664.07</ele>
        <time>2018-04-15T08:04:53.000Z</time>
      </trkpt>
      <trkpt lat="44.42617" lon="6.81808">
        <ele>2661.25</ele>
        <time>2018-04-15T08:04:57.000Z</time>
      </trkpt>
      <trkpt lat="44.42606" lon="6.81841">
        <ele>2658.52</ele>
        <time>2018-04-15T08:05:01.000Z</time>
      </trkpt>
      <trkpt lat="44.42603" lon="6.81866">
        <ele>2656.81</ele>
        <time>2018-04-15T08:05:05.000Z</time>
      </trkpt>
      <trkpt lat="44.42598" lon="6.81903">
        <ele>2652.1</ele>
        <time>2018-04-15T08:05:13.000Z</time>
      </trkpt>
      <trkpt lat="44.42594" lon="6.81947">
        <ele>2643.94</ele>
        <time>2018-04-15T08:05:21.000Z</time>
      </trkpt>
      <trkpt lat="44.42604" lon="6.81985">
        <ele>2639.72</ele>
        <time>2018-04-15T08:05:29.000Z</time>
      </trkpt>
      <trkpt lat="44.42621" lon="6.82004">
        <ele>2635.96</ele>
        <time>2018-04-15T08:05:49.000Z</time>
      </trkpt>
      <trkpt lat="44.42632" lon="6.82032">
        <ele>2633.19</ele>
        <time>2018-04-15T08:05:57.000Z</time>
      </trkpt>
      <trkpt lat="44.42639" lon="6.82056">
        <ele>2630.19</ele>
        <time>2018-04-15T08:06:05.000Z</time>
      </trkpt>
      <trkpt lat="44.42648" lon="6.82091">
        <ele>2624.52</ele>
        <time>2018-04-15T08:06:13.000Z</time>
      </trkpt>
      <trkpt lat="44.42654" lon="6.8213">
        <ele>2618.13</ele>
        <time>2018-04-15T08:06:29.000Z</time>
      </trkpt>
      <trkpt lat="44.42664" lon="6.82169">
        <ele>2603.73</ele>
        <time>2018-04-15T08:06:41.000Z</time>
      </trkpt>
      <trkpt lat="44.42675" lon="6.82202">
        <ele>2597.1</ele>
        <time>2018-04-15T08:06:49.000Z</time>
      </trkpt>
      <trkpt lat="44.4269" lon="6.82222">
        <ele>2590.88</ele>
        <time>2018-04-15T08:09:04.000Z</time>
      </trkpt>
      <trkpt lat="44.42702" lon="6.82253">
        <ele>2586.24</ele>
        <time>2018-04-15T08:09:16.000Z</time>
      </trkpt>
      <trkpt lat="44.42722" lon="6.82295">
        <ele>2571.99</ele>
        <time>2018-04-15T08:09:24.000Z</time>
      </trkpt>
      <trkpt lat="44.42741" lon="6.82324">
        <ele>2563.68</ele>
        <time>2018-04-15T08:09:32.000Z</time>
      </trkpt>
      <trkpt lat="44.42764" lon="6.82333">
        <ele>2558.94</ele>
        <time>2018-04-15T08:09:52.000Z</time>
      </trkpt>
      <trkpt lat="44.42778" lon="6.82315">
        <ele>2554</ele>
        <time>2018-04-15T08:10:04.000Z</time>
      </trkpt>
      <trkpt lat="44.42799" lon="6.82312">
        <ele>2535.95</ele>
        <time>2018-04-15T08:10:52.000Z</time>
      </trkpt>
      <trkpt lat="44.42811" lon="6.82292">
        <ele>2529.39</ele>
        <time>2018-04-15T08:11:04.000Z</time>
      </trkpt>
      <trkpt lat="44.42835" lon="6.82309">
        <ele>2517.76</ele>
        <time>2018-04-15T08:11:40.000Z</time>
      </trkpt>
      <trkpt lat="44.42841" lon="6.82333">
        <ele>2512.59</ele>
        <time>2018-04-15T08:11:48.000Z</time>
      </trkpt>
      <trkpt lat="44.42868" lon="6.82333">
        <ele>2502.47</ele>
        <time>2018-04-15T08:12:04.000Z</time>
      </trkpt>
      <trkpt lat="44.42888" lon="6.82325">
        <ele>2495.63</ele>
        <time>2018-04-15T08:12:12.000Z</time>
      </trkpt>
      <trkpt lat="44.42898" lon="6.82303">
        <ele>2476.73</ele>
        <time>2018-04-15T08:15:20.000Z</time>
      </trkpt>
      <trkpt lat="44.42914" lon="6.82268">
        <ele>2470.78</ele>
        <time>2018-04-15T08:15:52.000Z</time>
      </trkpt>
      <trkpt lat="44.42923" lon="6.82242">
        <ele>2459.16</ele>
        <time>2018-04-15T08:16:00.000Z</time>
      </trkpt>
      <trkpt lat="44.42931" lon="6.82219">
        <ele>2452.41</ele>
        <time>2018-04-15T08:16:04.000Z</time>
      </trkpt>
      <trkpt lat="44.42954" lon="6.82201">
        <ele>2440.23</ele>
        <time>2018-04-15T08:16:12.000Z</time>
      </trkpt>
      <trkpt lat="44.42971" lon="6.82191">
        <ele>2433.3</ele>
        <time>2018-04-15T08:16:16.000Z</time>
      </trkpt>
      <trkpt lat="44.42992" lon="6.82185">
        <ele>2429.16</ele>
        <time>2018-04-15T08:16:20.000Z</time>
      </trkpt>
      <trkpt lat="44.43014" lon="6.82196">
        <ele>2426.81</ele>
        <time>2018-04-15T08:16:24.000Z</time>
      </trkpt>
      <trkpt lat="44.43031" lon="6.82208">
        <ele>2425.28</ele>
        <time>2018-04-15T08:16:28.000Z</time>
      </trkpt>
      <trkpt lat="44.43054" lon="6.82214">
        <ele>2424.34</ele>
        <time>2018-04-15T08:16:36.000Z</time>
      </trkpt>
      <trkpt lat="44.43077" lon="6.82218">
        <ele>2423.58</ele>
        <time>2018-04-15T08:16:44.000Z</time>
      </trkpt>
      <trkpt lat="44.43102" lon="6.82244">
        <ele>2417.25</ele>
        <time>2018-04-15T08:16:52.000Z</time>
      </trkpt>
      <trkpt lat="44.43125" lon="6.82245">
        <ele>2410.55</ele>
        <time>2018-04-15T08:16:56.000Z</time>
      </trkpt>
      <trkpt lat="44.4315" lon="6.82246">
        <ele>2405.64</ele>
        <time>2018-04-15T08:17:00.000Z</time>
      </trkpt>
      <trkpt lat="44.43179" lon="6.82244">
        <ele>2400.59</ele>
        <time>2018-04-15T08:17:08.000Z</time>
      </trkpt>
      <trkpt lat="44.43207" lon="6.82248">
        <ele>2396.24</ele>
        <time>2018-04-15T08:17:16.000Z</time>
      </trkpt>
      <trkpt lat="44.43232" lon="6.82273">
        <ele>2388.83</ele>
        <time>2018-04-15T08:17:24.000Z</time>
      </trkpt>
      <trkpt lat="44.4325" lon="6.82296">
        <ele>2382.79</ele>
        <time>2018-04-15T08:17:28.000Z</time>
      </trkpt>
      <trkpt lat="44.43269" lon="6.82309">
        <ele>2376.96</ele>
        <time>2018-04-15T08:17:36.000Z</time>
      </trkpt>
      <trkpt lat="44.43265" lon="6.82359">
        <ele>2354.51</ele>
        <time>2018-04-15T08:19:28.000Z</time>
      </trkpt>
      <trkpt lat="44.43259" lon="6.82383">
        <ele>2343.69</ele>
        <time>2018-04-15T08:19:56.000Z</time>
      </trkpt>
      <trkpt lat="44.43245" lon="6.82365">
        <ele>2328.01</ele>
        <time>2018-04-15T08:29:26.000Z</time>
      </trkpt>
      <trkpt lat="44.43231" lon="6.82345">
        <ele>2328.53</ele>
        <time>2018-04-15T08:30:02.000Z</time>
      </trkpt>
      <trkpt lat="44.43237" lon="6.82317">
        <ele>2332.28</ele>
        <time>2018-04-15T08:30:30.000Z</time>
      </trkpt>
      <trkpt lat="44.43256" lon="6.82304">
        <ele>2337.45</ele>
        <time>2018-04-15T08:30:58.000Z</time>
      </trkpt>
      <trkpt lat="44.43253" lon="6.82278">
        <ele>2345.1</ele>
        <time>2018-04-15T08:31:54.000Z</time>
      </trkpt>
      <trkpt lat="44.43237" lon="6.82264">
        <ele>2348.39</ele>
        <time>2018-04-15T08:32:26.000Z</time>
      </trkpt>
      <trkpt lat="44.43218" lon="6.82252">
        <ele>2352.23</ele>
        <time>2018-04-15T08:32:54.000Z</time>
      </trkpt>
      <trkpt lat="44.43201" lon="6.82245">
        <ele>2357.05</ele>
        <time>2018-04-15T08:33:22.000Z</time>
      </trkpt>
      <trkpt lat="44.4319" lon="6.82223">
        <ele>2363.5</ele>
        <time>2018-04-15T08:34:02.000Z</time>
      </trkpt>
      <trkpt lat="44.43203" lon="6.82202">
        <ele>2373.13</ele>
        <time>2018-04-15T08:34:42.000Z</time>
      </trkpt>
      <trkpt lat="44.4322" lon="6.8219">
        <ele>2379.04</ele>
        <time>2018-04-15T08:34:58.000Z</time>
      </trkpt>
      <trkpt lat="44.43204" lon="6.82176">
        <ele>2391.8</ele>
        <time>2018-04-15T08:35:50.000Z</time>
      </trkpt>
      <trkpt lat="44.43188" lon="6.82164">
        <ele>2397.5</ele>
        <time>2018-04-15T08:36:18.000Z</time>
      </trkpt>
      <trkpt lat="44.43204" lon="6.82145">
        <ele>2402.98</ele>
        <time>2018-04-15T08:37:38.000Z</time>
      </trkpt>
      <trkpt lat="44.43201" lon="6.8212">
        <ele>2410.43</ele>
        <time>2018-04-15T08:38:38.000Z</time>
      </trkpt>
      <trkpt lat="44.43183" lon="6.82111">
        <ele>2413.44</ele>
        <time>2018-04-15T08:39:10.000Z</time>
      </trkpt>
      <trkpt lat="44.43164" lon="6.82119">
        <ele>2416.63</ele>
        <time>2018-04-15T08:39:34.000Z</time>
      </trkpt>
      <trkpt lat="44.43162" lon="6.8209">
        <ele>2426.2</ele>
        <time>2018-04-15T08:40:50.000Z</time>
      </trkpt>
      <trkpt lat="44.43164" lon="6.82063">
        <ele>2430.19</ele>
        <time>2018-04-15T08:41:22.000Z</time>
      </trkpt>
      <trkpt lat="44.43185" lon="6.82054">
        <ele>2431.66</ele>
        <time>2018-04-15T08:41:50.000Z</time>
      </trkpt>
      <trkpt lat="44.43206" lon="6.82053">
        <ele>2434.06</ele>
        <time>2018-04-15T08:42:17.000Z</time>
      </trkpt>
      <trkpt lat="44.43189" lon="6.82039">
        <ele>2451.48</ele>
        <time>2018-04-15T08:43:13.000Z</time>
      </trkpt>
      <trkpt lat="44.43179" lon="6.82018">
        <ele>2464.45</ele>
        <time>2018-04-15T08:44:45.000Z</time>
      </trkpt>
      <trkpt lat="44.43196" lon="6.82009">
        <ele>2466.56</ele>
        <time>2018-04-15T08:44:57.000Z</time>
      </trkpt>
      <trkpt lat="44.43218" lon="6.82001">
        <ele>2474.1</ele>
        <time>2018-04-15T08:45:53.000Z</time>
      </trkpt>
      <trkpt lat="44.43219" lon="6.81976">
        <ele>2498.27</ele>
        <time>2018-04-15T08:49:53.000Z</time>
      </trkpt>
      <trkpt lat="44.43201" lon="6.81962">
        <ele>2508.22</ele>
        <time>2018-04-15T08:51:57.000Z</time>
      </trkpt>
      <trkpt lat="44.43188" lon="6.81944">
        <ele>2513.99</ele>
        <time>2018-04-15T08:53:25.000Z</time>
      </trkpt>
      <trkpt lat="44.43195" lon="6.8192">
        <ele>2530.16</ele>
        <time>2018-04-15T08:54:57.000Z</time>
      </trkpt>
      <trkpt lat="44.4318" lon="6.81905">
        <ele>2537.99</ele>
        <time>2018-04-15T08:55:29.000Z</time>
      </trkpt>
      <trkpt lat="44.43198" lon="6.81899">
        <ele>2544.38</ele>
        <time>2018-04-15T08:56:57.000Z</time>
      </trkpt>
      <trkpt lat="44.43221" lon="6.81889">
        <ele>2548.34</ele>
        <time>2018-04-15T08:57:41.000Z</time>
      </trkpt>
      <trkpt lat="44.43239" lon="6.81885">
        <ele>2551.96</ele>
        <time>2018-04-15T08:58:05.000Z</time>
      </trkpt>
      <trkpt lat="44.43226" lon="6.81868">
        <ele>2559.86</ele>
        <time>2018-04-15T08:59:38.000Z</time>
      </trkpt>
      <trkpt lat="44.43212" lon="6.8185">
        <ele>2563.48</ele>
        <time>2018-04-15T09:00:34.000Z</time>
      </trkpt>
      <trkpt lat="44.43199" lon="6.81832">
        <ele>2567.04</ele>
        <time>2018-04-15T09:01:22.000Z</time>
      </trkpt>
      <trkpt lat="44.43217" lon="6.81823">
        <ele>2576.47</ele>
        <time>2018-04-15T09:03:14.000Z</time>
      </trkpt>
      <trkpt lat="44.43237" lon="6.81824">
        <ele>2581.18</ele>
        <time>2018-04-15T09:03:38.000Z</time>
      </trkpt>
      <trkpt lat="44.43246" lon="6.81801">
        <ele>2587.74</ele>
        <time>2018-04-15T09:05:14.000Z</time>
      </trkpt>
      <trkpt lat="44.43239" lon="6.81775">
        <ele>2586.28</ele>
        <time>2018-04-15T09:05:42.000Z</time>
      </trkpt>
      <trkpt lat="44.43225" lon="6.81759">
        <ele>2585.74</ele>
        <time>2018-04-15T09:06:14.000Z</time>
      </trkpt>
      <trkpt lat="44.43206" lon="6.81756">
        <ele>2586.17</ele>
        <time>2018-04-15T09:06:58.000Z</time>
      </trkpt>
      <trkpt lat="44.43224" lon="6.81745">
        <ele>2599.01</ele>
        <time>2018-04-15T09:08:26.000Z</time>
      </trkpt>
      <trkpt lat="44.43242" lon="6.81746">
        <ele>2604.2</ele>
        <time>2018-04-15T09:08:42.000Z</time>
      </trkpt>
      <trkpt lat="44.43261" lon="6.81748">
        <ele>2610.74</ele>
        <time>2018-04-15T09:09:10.000Z</time>
      </trkpt>
      <trkpt lat="44.43277" lon="6.81732">
        <ele>2624.51</ele>
        <time>2018-04-15T09:11:06.000Z</time>
      </trkpt>
      <trkpt lat="44.43265" lon="6.81709">
        <ele>2624.97</ele>
        <time>2018-04-15T09:11:54.000Z</time>
      </trkpt>
      <trkpt lat="44.43248" lon="6.81699">
        <ele>2627.7</ele>
        <time>2018-04-15T09:13:55.000Z</time>
      </trkpt>
      <trkpt lat="44.43229" lon="6.81695">
        <ele>2638.92</ele>
        <time>2018-04-15T09:24:02.000Z</time>
      </trkpt>
      <trkpt lat="44.43208" lon="6.81718">
        <ele>2638.55</ele>
        <time>2018-04-15T09:47:51.000Z</time>
      </trkpt>
      <trkpt lat="44.43198" lon="6.8175">
        <ele>2635.74</ele>
        <time>2018-04-15T09:48:03.000Z</time>
      </trkpt>
      <trkpt lat="44.43196" lon="6.81787">
        <ele>2626.8</ele>
        <time>2018-04-15T09:48:11.000Z</time>
      </trkpt>
      <trkpt lat="44.43202" lon="6.81817">
        <ele>2611</ele>
        <time>2018-04-15T09:50:15.000Z</time>
      </trkpt>
      <trkpt lat="44.43206" lon="6.81848">
        <ele>2605.31</ele>
        <time>2018-04-15T09:50:27.000Z</time>
      </trkpt>
      <trkpt lat="44.43206" lon="6.81878">
        <ele>2593.14</ele>
        <time>2018-04-15T09:50:35.000Z</time>
      </trkpt>
      <trkpt lat="44.43203" lon="6.81914">
        <ele>2578.91</ele>
        <time>2018-04-15T09:50:43.000Z</time>
      </trkpt>
      <trkpt lat="44.432" lon="6.81943">
        <ele>2571.44</ele>
        <time>2018-04-15T09:50:51.000Z</time>
      </trkpt>
      <trkpt lat="44.43187" lon="6.81961">
        <ele>2560.2</ele>
        <time>2018-04-15T09:51:43.000Z</time>
      </trkpt>
      <trkpt lat="44.43211" lon="6.81961">
        <ele>2542.77</ele>
        <time>2018-04-15T09:52:19.000Z</time>
      </trkpt>
      <trkpt lat="44.4323" lon="6.81981">
        <ele>2531.93</ele>
        <time>2018-04-15T09:52:27.000Z</time>
      </trkpt>
      <trkpt lat="44.43224" lon="6.82005">
        <ele>2526.18</ele>
        <time>2018-04-15T09:52:35.000Z</time>
      </trkpt>
      <trkpt lat="44.43232" lon="6.82036">
        <ele>2514.12</ele>
        <time>2018-04-15T09:52:43.000Z</time>
      </trkpt>
      <trkpt lat="44.43228" lon="6.82066">
        <ele>2508.88</ele>
        <time>2018-04-15T09:52:51.000Z</time>
      </trkpt>
      <trkpt lat="44.43224" lon="6.82097">
        <ele>2499.77</ele>
        <time>2018-04-15T09:52:59.000Z</time>
      </trkpt>
      <trkpt lat="44.43227" lon="6.82129">
        <ele>2458.68</ele>
        <time>2018-04-15T09:58:22.000Z</time>
      </trkpt>
      <trkpt lat="44.43247" lon="6.8215">
        <ele>2450.49</ele>
        <time>2018-04-15T09:58:30.000Z</time>
      </trkpt>
      <trkpt lat="44.43263" lon="6.82164">
        <ele>2438.14</ele>
        <time>2018-04-15T09:58:34.000Z</time>
      </trkpt>
      <trkpt lat="44.43288" lon="6.82178">
        <ele>2428.31</ele>
        <time>2018-04-15T09:58:42.000Z</time>
      </trkpt>
      <trkpt lat="44.43307" lon="6.82194">
        <ele>2421.04</ele>
        <time>2018-04-15T09:58:50.000Z</time>
      </trkpt>
      <trkpt lat="44.43325" lon="6.82211">
        <ele>2417.45</ele>
        <time>2018-04-15T09:58:58.000Z</time>
      </trkpt>
      <trkpt lat="44.43345" lon="6.82228">
        <ele>2409.89</ele>
        <time>2018-04-15T09:59:06.000Z</time>
      </trkpt>
      <trkpt lat="44.43365" lon="6.82244">
        <ele>2405.49</ele>
        <time>2018-04-15T09:59:14.000Z</time>
      </trkpt>
      <trkpt lat="44.43389" lon="6.82263">
        <ele>2401.6</ele>
        <time>2018-04-15T09:59:26.000Z</time>
      </trkpt>
      <trkpt lat="44.4341" lon="6.82284">
        <ele>2393.61</ele>
        <time>2018-04-15T09:59:38.000Z</time>
      </trkpt>
      <trkpt lat="44.43427" lon="6.82301">
        <ele>2389.03</ele>
        <time>2018-04-15T09:59:46.000Z</time>
      </trkpt>
      <trkpt lat="44.43444" lon="6.82314">
        <ele>2385.68</ele>
        <time>2018-04-15T09:59:54.000Z</time>
      </trkpt>
      <trkpt lat="44.43465" lon="6.82328">
        <ele>2380.12</ele>
        <time>2018-04-15T10:00:06.000Z</time>
      </trkpt>
      <trkpt lat="44.43486" lon="6.8234">
        <ele>2375.94</ele>
        <time>2018-04-15T10:00:14.000Z</time>
      </trkpt>
      <trkpt lat="44.43509" lon="6.82352">
        <ele>2366.74</ele>
        <time>2018-04-15T10:00:22.000Z</time>
      </trkpt>
      <trkpt lat="44.43533" lon="6.82364">
        <ele>2358.72</ele>
        <time>2018-04-15T10:00:38.000Z</time>
      </trkpt>
      <trkpt lat="44.43552" lon="6.8237">
        <ele>2355.79</ele>
        <time>2018-04-15T10:00:46.000Z</time>
      </trkpt>
      <trkpt lat="44.43577" lon="6.82374">
        <ele>2351.14</ele>
        <time>2018-04-15T10:01:06.000Z</time>
      </trkpt>
      <trkpt lat="44.43597" lon="6.82377">
        <ele>2349.53</ele>
        <time>2018-04-15T10:01:14.000Z</time>
      </trkpt>
      <trkpt lat="44.43616" lon="6.82383">
        <ele>2348.09</ele>
        <time>2018-04-15T10:01:22.000Z</time>
      </trkpt>
      <trkpt lat="44.43636" lon="6.82407">
        <ele>2346.18</ele>
        <time>2018-04-15T10:01:30.000Z</time>
      </trkpt>
      <trkpt lat="44.43655" lon="6.82428">
        <ele>2343.37</ele>
        <time>2018-04-15T10:01:42.000Z</time>
      </trkpt>
      <trkpt lat="44.43673" lon="6.82444">
        <ele>2340.3</ele>
        <time>2018-04-15T10:01:54.000Z</time>
      </trkpt>
      <trkpt lat="44.43688" lon="6.82461">
        <ele>2335.06</ele>
        <time>2018-04-15T10:02:14.000Z</time>
      </trkpt>
      <trkpt lat="44.43705" lon="6.82479">
        <ele>2332.58</ele>
        <time>2018-04-15T10:02:22.000Z</time>
      </trkpt>
      <trkpt lat="44.43718" lon="6.82496">
        <ele>2330.19</ele>
        <time>2018-04-15T10:02:30.000Z</time>
      </trkpt>
      <trkpt lat="44.43739" lon="6.82515">
        <ele>2326.23</ele>
        <time>2018-04-15T10:02:54.000Z</time>
      </trkpt>
      <trkpt lat="44.43761" lon="6.82537">
        <ele>2323.99</ele>
        <time>2018-04-15T10:03:06.000Z</time>
      </trkpt>
      <trkpt lat="44.43778" lon="6.82564">
        <ele>2318.94</ele>
        <time>2018-04-15T10:04:30.000Z</time>
      </trkpt>
      <trkpt lat="44.43801" lon="6.82592">
        <ele>2312.61</ele>
        <time>2018-04-15T10:04:38.000Z</time>
      </trkpt>
      <trkpt lat="44.43822" lon="6.82623">
        <ele>2309.14</ele>
        <time>2018-04-15T10:04:46.000Z</time>
      </trkpt>
      <trkpt lat="44.43838" lon="6.82653">
        <ele>2308.34</ele>
        <time>2018-04-15T10:04:54.000Z</time>
      </trkpt>
      <trkpt lat="44.43853" lon="6.82676">
        <ele>2307.68</ele>
        <time>2018-04-15T10:05:02.000Z</time>
      </trkpt>
      <trkpt lat="44.43864" lon="6.82696">
        <ele>2306.48</ele>
        <time>2018-04-15T10:05:10.000Z</time>
      </trkpt>
      <trkpt lat="44.43881" lon="6.82727">
        <ele>2299.97</ele>
        <time>2018-04-15T10:05:22.000Z</time>
      </trkpt>
      <trkpt lat="44.439" lon="6.8276">
        <ele>2294.29</ele>
        <time>2018-04-15T10:05:30.000Z</time>
      </trkpt>
      <trkpt lat="44.43916" lon="6.82791">
        <ele>2293.23</ele>
        <time>2018-04-15T10:05:38.000Z</time>
      </trkpt>
      <trkpt lat="44.4393" lon="6.82815">
        <ele>2291.9</ele>
        <time>2018-04-15T10:05:46.000Z</time>
      </trkpt>
      <trkpt lat="44.43945" lon="6.82842">
        <ele>2290.56</ele>
        <time>2018-04-15T10:05:54.000Z</time>
      </trkpt>
      <trkpt lat="44.43958" lon="6.82865">
        <ele>2289.24</ele>
        <time>2018-04-15T10:06:02.000Z</time>
      </trkpt>
      <trkpt lat="44.43972" lon="6.82896">
        <ele>2287.2</ele>
        <time>2018-04-15T10:06:14.000Z</time>
      </trkpt>
      <trkpt lat="44.43989" lon="6.82921">
        <ele>2286.35</ele>
        <time>2018-04-15T10:06:22.000Z</time>
      </trkpt>
      <trkpt lat="44.44006" lon="6.82944">
        <ele>2285.78</ele>
        <time>2018-04-15T10:06:30.000Z</time>
      </trkpt>
      <trkpt lat="44.44022" lon="6.8297">
        <ele>2282.92</ele>
        <time>2018-04-15T10:06:38.000Z</time>
      </trkpt>
      <trkpt lat="44.44033" lon="6.82991">
        <ele>2279.66</ele>
        <time>2018-04-15T10:06:42.000Z</time>
      </trkpt>
      <trkpt lat="44.44043" lon="6.83028">
        <ele>2278.01</ele>
        <time>2018-04-15T10:06:50.000Z</time>
      </trkpt>
      <trkpt lat="44.44046" lon="6.83053">
        <ele>2277.56</ele>
        <time>2018-04-15T10:06:58.000Z</time>
      </trkpt>
      <trkpt lat="44.44056" lon="6.83075">
        <ele>2274.43</ele>
        <time>2018-04-15T10:11:59.000Z</time>
      </trkpt>
      <trkpt lat="44.44073" lon="6.83084">
        <ele>2274.48</ele>
        <time>2018-04-15T10:12:11.000Z</time>
      </trkpt>
      <trkpt lat="44.44091" lon="6.83096">
        <ele>2274.07</ele>
        <time>2018-04-15T10:12:19.000Z</time>
      </trkpt>
      <trkpt lat="44.44107" lon="6.83117">
        <ele>2273.47</ele>
        <time>2018-04-15T10:12:27.000Z</time>
      </trkpt>
      <trkpt lat="44.44123" lon="6.83148">
        <ele>2270.75</ele>
        <time>2018-04-15T10:12:35.000Z</time>
      </trkpt>
      <trkpt lat="44.44136" lon="6.83179">
        <ele>2266.59</ele>
        <time>2018-04-15T10:12:43.000Z</time>
      </trkpt>
      <trkpt lat="44.4414" lon="6.83208">
        <ele>2261.4</ele>
        <time>2018-04-15T10:12:47.000Z</time>
      </trkpt>
      <trkpt lat="44.4415" lon="6.8324">
        <ele>2256.39</ele>
        <time>2018-04-15T10:12:51.000Z</time>
      </trkpt>
      <trkpt lat="44.44164" lon="6.83278">
        <ele>2250.1</ele>
        <time>2018-04-15T10:12:59.000Z</time>
      </trkpt>
      <trkpt lat="44.44174" lon="6.833">
        <ele>2247.74</ele>
        <time>2018-04-15T10:13:03.000Z</time>
      </trkpt>
      <trkpt lat="44.44192" lon="6.83302">
        <ele>2250.24</ele>
        <time>2018-04-15T10:17:19.000Z</time>
      </trkpt>
      <trkpt lat="44.44211" lon="6.83294">
        <ele>2247.27</ele>
        <time>2018-04-15T10:19:55.000Z</time>
      </trkpt>
      <trkpt lat="44.44233" lon="6.83295">
        <ele>2243.61</ele>
        <time>2018-04-15T10:20:19.000Z</time>
      </trkpt>
      <trkpt lat="44.44257" lon="6.83304">
        <ele>2239.2</ele>
        <time>2018-04-15T10:20:47.000Z</time>
      </trkpt>
      <trkpt lat="44.44274" lon="6.83312">
        <ele>2234.58</ele>
        <time>2018-04-15T10:20:59.000Z</time>
      </trkpt>
      <trkpt lat="44.44289" lon="6.83328">
        <ele>2226.21</ele>
        <time>2018-04-15T10:21:35.000Z</time>
      </trkpt>
      <trkpt lat="44.44308" lon="6.83337">
        <ele>2206.18</ele>
        <time>2018-04-15T10:22:23.000Z</time>
      </trkpt>
      <trkpt lat="44.44326" lon="6.83336">
        <ele>2162.86</ele>
        <time>2018-04-15T10:25:23.000Z</time>
      </trkpt>
      <trkpt lat="44.44343" lon="6.83346">
        <ele>2161.17</ele>
        <time>2018-04-15T10:25:31.000Z</time>
      </trkpt>
      <trkpt lat="44.44361" lon="6.83351">
        <ele>2156.99</ele>
        <time>2018-04-15T10:25:51.000Z</time>
      </trkpt>
      <trkpt lat="44.44375" lon="6.8333">
        <ele>2146.42</ele>
        <time>2018-04-15T10:27:19.000Z</time>
      </trkpt>
      <trkpt lat="44.44392" lon="6.83348">
        <ele>2122.87</ele>
        <time>2018-04-15T10:34:42.000Z</time>
      </trkpt>
      <trkpt lat="44.44412" lon="6.83372">
        <ele>2115.34</ele>
        <time>2018-04-15T10:34:46.000Z</time>
      </trkpt>
      <trkpt lat="44.44423" lon="6.83399">
        <ele>2111.58</ele>
        <time>2018-04-15T10:34:50.000Z</time>
      </trkpt>
      <trkpt lat="44.44447" lon="6.83422">
        <ele>2103.25</ele>
        <time>2018-04-15T10:34:58.000Z</time>
      </trkpt>
      <trkpt lat="44.44464" lon="6.83439">
        <ele>2100.41</ele>
        <time>2018-04-15T10:35:02.000Z</time>
      </trkpt>
      <trkpt lat="44.44476" lon="6.83459">
        <ele>2096.42</ele>
        <time>2018-04-15T10:35:30.000Z</time>
      </trkpt>
      <trkpt lat="44.44495" lon="6.83473">
        <ele>2099.82</ele>
        <time>2018-04-15T10:36:02.000Z</time>
      </trkpt>
      <trkpt lat="44.44505" lon="6.83494">
        <ele>2098.5</ele>
        <time>2018-04-15T10:36:06.000Z</time>
      </trkpt>
      <trkpt lat="44.44523" lon="6.83509">
        <ele>2094.92</ele>
        <time>2018-04-15T10:36:22.000Z</time>
      </trkpt>
      <trkpt lat="44.44541" lon="6.83513">
        <ele>2091.89</ele>
        <time>2018-04-15T10:36:42.000Z</time>
      </trkpt>
      <trkpt lat="44.44551" lon="6.83543">
        <ele>2084.34</ele>
        <time>2018-04-15T10:38:34.000Z</time>
      </trkpt>
      <trkpt lat="44.44568" lon="6.83577">
        <ele>2078.42</ele>
        <time>2018-04-15T10:38:46.000Z</time>
      </trkpt>
      <trkpt lat="44.44585" lon="6.83602">
        <ele>2068.69</ele>
        <time>2018-04-15T10:39:06.000Z</time>
      </trkpt>
      <trkpt lat="44.44604" lon="6.8363">
        <ele>2053.57</ele>
        <time>2018-04-15T10:39:30.000Z</time>
      </trkpt>
      <trkpt lat="44.4461" lon="6.83658">
        <ele>2044.45</ele>
        <time>2018-04-15T10:39:42.000Z</time>
      </trkpt>
      <trkpt lat="44.44624" lon="6.83681">
        <ele>2031.05</ele>
        <time>2018-04-15T10:42:50.000Z</time>
      </trkpt>
      <trkpt lat="44.44619" lon="6.8371">
        <ele>2026.31</ele>
        <time>2018-04-15T10:43:14.000Z</time>
      </trkpt>
      <trkpt lat="44.44635" lon="6.83739">
        <ele>2022.15</ele>
        <time>2018-04-15T10:43:22.000Z</time>
      </trkpt>
      <trkpt lat="44.4465" lon="6.83756">
        <ele>2018.43</ele>
        <time>2018-04-15T10:43:30.000Z</time>
      </trkpt>
      <trkpt lat="44.44665" lon="6.83782">
        <ele>2011.46</ele>
        <time>2018-04-15T10:44:46.000Z</time>
      </trkpt>
      <trkpt lat="44.44676" lon="6.83807">
        <ele>2004.14</ele>
        <time>2018-04-15T10:45:02.000Z</time>
      </trkpt>
      <trkpt lat="44.44683" lon="6.83831">
        <ele>1997.98</ele>
        <time>2018-04-15T10:45:18.000Z</time>
      </trkpt>
      <trkpt lat="44.44691" lon="6.83862">
        <ele>1993.71</ele>
        <time>2018-04-15T10:45:26.000Z</time>
      </trkpt>
      <trkpt lat="44.44693" lon="6.839">
        <ele>1987.37</ele>
        <time>2018-04-15T10:45:34.000Z</time>
      </trkpt>
      <trkpt lat="44.4469" lon="6.83928">
        <ele>1975.58</ele>
        <time>2018-04-15T10:45:46.000Z</time>
      </trkpt>
      <trkpt lat="44.44695" lon="6.83956">
        <ele>1963.18</ele>
        <time>2018-04-15T10:46:11.000Z</time>
      </trkpt>
      <trkpt lat="44.44697" lon="6.83987">
        <ele>1957.67</ele>
        <time>2018-04-15T10:46:23.000Z</time>
      </trkpt>
      <trkpt lat="44.44707" lon="6.84009">
        <ele>1953.42</ele>
        <time>2018-04-15T10:46:55.000Z</time>
      </trkpt>
      <trkpt lat="44.4472" lon="6.84041">
        <ele>1950.31</ele>
        <time>2018-04-15T10:47:39.000Z</time>
      </trkpt>
      <trkpt lat="44.44729" lon="6.84073">
        <ele>1945.97</ele>
        <time>2018-04-15T10:47:47.000Z</time>
      </trkpt>
      <trkpt lat="44.44724" lon="6.84101">
        <ele>1942.03</ele>
        <time>2018-04-15T10:47:59.000Z</time>
      </trkpt>
      <trkpt lat="44.44715" lon="6.84132">
        <ele>1938.81</ele>
        <time>2018-04-15T10:48:07.000Z</time>
      </trkpt>
      <trkpt lat="44.44711" lon="6.84163">
        <ele>1930.65</ele>
        <time>2018-04-15T10:48:19.000Z</time>
      </trkpt>
      <trkpt lat="44.44715" lon="6.84218">
        <ele>1903.94</ele>
        <time>2018-04-15T10:48:27.000Z</time>
      </trkpt>
      <trkpt lat="44.4472" lon="6.84251">
        <ele>1895.27</ele>
        <time>2018-04-15T10:50:23.000Z</time>
      </trkpt>
      <trkpt lat="44.44724" lon="6.84278">
        <ele>1891.65</ele>
        <time>2018-04-15T10:50:35.000Z</time>
      </trkpt>
      <trkpt lat="44.44731" lon="6.84302">
        <ele>1878.26</ele>
        <time>2018-04-15T10:50:55.000Z</time>
      </trkpt>
      <trkpt lat="44.44751" lon="6.84312">
        <ele>1872.8</ele>
        <time>2018-04-15T10:51:03.000Z</time>
      </trkpt>
      <trkpt lat="44.44785" lon="6.84311">
        <ele>1866.67</ele>
        <time>2018-04-15T10:51:27.000Z</time>
      </trkpt>
      <trkpt lat="44.4479" lon="6.84336">
        <ele>1852.67</ele>
        <time>2018-04-15T10:52:23.000Z</time>
      </trkpt>
      <trkpt lat="44.44763" lon="6.84375">
        <ele>1842.12</ele>
        <time>2018-04-15T10:53:23.000Z</time>
      </trkpt>
      <trkpt lat="44.44754" lon="6.84397">
        <ele>1839.83</ele>
        <time>2018-04-15T10:53:27.000Z</time>
      </trkpt>
      <trkpt lat="44.44756" lon="6.84439">
        <ele>1835.05</ele>
        <time>2018-04-15T10:53:35.000Z</time>
      </trkpt>
      <trkpt lat="44.44745" lon="6.84503">
        <ele>1828.08</ele>
        <time>2018-04-15T10:53:43.000Z</time>
      </trkpt>
      <trkpt lat="44.44732" lon="6.84553">
        <ele>1808.4</ele>
        <time>2018-04-15T10:53:51.000Z</time>
      </trkpt>
      <trkpt lat="44.44715" lon="6.84596">
        <ele>1774.71</ele>
        <time>2018-04-15T10:53:59.000Z</time>
      </trkpt>
      <trkpt lat="44.44701" lon="6.84625">
        <ele>1768.21</ele>
        <time>2018-04-15T10:54:03.000Z</time>
      </trkpt>
      <trkpt lat="44.44715" lon="6.84641">
        <ele>1765.95</ele>
        <time>2018-04-15T10:55:19.000Z</time>
      </trkpt>
      <trkpt lat="44.44743" lon="6.84638">
        <ele>1770.27</ele>
        <time>2018-04-15T10:56:19.000Z</time>
      </trkpt>
      <trkpt lat="44.44764" lon="6.84622">
        <ele>1771.53</ele>
        <time>2018-04-15T10:56:31.000Z</time>
      </trkpt>
      <trkpt lat="44.44781" lon="6.84605">
        <ele>1774.11</ele>
        <time>2018-04-15T10:56:47.000Z</time>
      </trkpt>
      <trkpt lat="44.44798" lon="6.84592">
        <ele>1775.77</ele>
        <time>2018-04-15T10:56:59.000Z</time>
      </trkpt>
      <trkpt lat="44.44814" lon="6.84574">
        <ele>1775.6</ele>
        <time>2018-04-15T10:57:07.000Z</time>
      </trkpt>
      <trkpt lat="44.44831" lon="6.84553">
        <ele>1773.95</ele>
        <time>2018-04-15T10:57:19.000Z</time>
      </trkpt>
      <trkpt lat="44.44859" lon="6.84541">
        <ele>1771.72</ele>
        <time>2018-04-15T10:57:31.000Z</time>
      </trkpt>
      <trkpt lat="44.44885" lon="6.84492">
        <ele>1764.17</ele>
        <time>2018-04-15T10:57:47.000Z</time>
      </trkpt>
      <trkpt lat="44.44904" lon="6.84472">
        <ele>1761.16</ele>
        <time>2018-04-15T10:57:51.000Z</time>
      </trkpt>
      <trkpt lat="44.44932" lon="6.84442">
        <ele>1746.06</ele>
        <time>2018-04-15T10:57:55.000Z</time>
      </trkpt>
      <trkpt lat="44.44946" lon="6.84421">
        <ele>1734.97</ele>
        <time>2018-04-15T10:58:03.000Z</time>
      </trkpt>
      <trkpt lat="44.44959" lon="6.84399">
        <ele>1723.84</ele>
        <time>2018-04-15T10:58:19.000Z</time>
      </trkpt>
      <trkpt lat="44.44977" lon="6.84379">
        <ele>1716.97</ele>
        <time>2018-04-15T10:58:31.000Z</time>
      </trkpt>
      <trkpt lat="44.44987" lon="6.84354">
        <ele>1714.74</ele>
        <time>2018-04-15T10:58:35.000Z</time>
      </trkpt>
      <trkpt lat="44.45006" lon="6.84341">
        <ele>1711.01</ele>
        <time>2018-04-15T10:58:47.000Z</time>
      </trkpt>
      <trkpt lat="44.45023" lon="6.8435">
        <ele>1688.17</ele>
        <time>2018-04-15T10:59:59.000Z</time>
      </trkpt>
      <trkpt lat="44.45041" lon="6.84353">
        <ele>1676.96</ele>
        <time>2018-04-15T11:00:23.000Z</time>
      </trkpt>
    </trkseg>
  </trk>
</gpx>